ENDU

Bardufoss Airport

Målselv, Norway
METAR ENDU 180250Z AUTO 00000KT 9999 BKN039/// M10/M11 Q1002 RMK WIND 1100FT 19010KT WIND 2200FT 20010KT
Observed Flight Rules
Dec-18 @ 02:50 UTC (20 minutes ago) Visual Flight Rules
Wind Visibility Clouds
Calm 10,000+ meters
  • Broken at 3,900' AGL
Temperatures Readings
Current -10°C / 14°F
Dewpoint -11°C / 12°F
Humidity 92%
Altimeter 29.59" Hg
Pressure 1002 hPa
Elevation 79
METAR ENDU 180250Z AUTO 00000KT 9999 BKN039/// M10/M11 Q1002 RMK WIND 1100FT 19010KT WIND 2200FT 20010KT
Observed Flight Rules
Dec-18 @ 02:50 UTC
(20 minutes ago)
VFR
Wind Visibility
Calm 10,000+ meters
Clouds
  • Broken at 3,900' AGL
Temperature Dewpoint
-10°C / 14°F -11°C / 12°F
Humidity Altimeter Pressure
92% 29.59" Hg 1002 hPa